createdAt,value
2022-08-26T00:01:52.952Z,25.60
2022-08-26T00:04:22.119Z,25.70
2022-08-26T00:06:50.068Z,25.30
2022-08-26T00:09:17.983Z,25.80
2022-08-26T00:11:47.968Z,25.60
2022-08-26T00:14:16.331Z,25.40
2022-08-26T00:16:48.199Z,25.40
2022-08-26T00:19:16.723Z,25.40
2022-08-26T00:21:44.724Z,25.30
2022-08-26T00:24:13.470Z,25.40
2022-08-26T00:26:41.620Z,25.50
2022-08-26T00:29:12.373Z,25.50
2022-08-26T00:31:40.986Z,25.30
2022-08-26T00:34:11.299Z,25.40
2022-08-26T00:36:40.894Z,25.50
2022-08-26T00:39:08.936Z,25.20
2022-08-26T00:41:36.926Z,25.20
2022-08-26T00:44:05.166Z,25.10
2022-08-26T00:46:35.216Z,25.10
2022-08-26T00:49:05.412Z,25.20
2022-08-26T00:51:41.684Z,25.40
2022-08-26T00:54:10.763Z,25.40
2022-08-26T00:56:39.338Z,25.50
2022-08-26T00:59:07.886Z,25.20
2022-08-26T01:01:38.133Z,25.30
2022-08-26T01:04:06.657Z,25.40
2022-08-26T01:06:34.627Z,25.20
2022-08-26T01:09:02.914Z,25.20
2022-08-26T01:11:30.838Z,25.20
2022-08-26T01:13:58.934Z,25.30
2022-08-26T01:16:27.028Z,25.30
2022-08-26T01:18:56.589Z,25.50
2022-08-26T01:21:27.317Z,25.30
2022-08-26T01:23:57.442Z,25.10
2022-08-26T01:26:26.426Z,24.90
2022-08-26T01:28:55.549Z,25.00
2022-08-26T01:31:25.013Z,25.30
2022-08-26T01:33:53.979Z,25.40
2022-08-26T01:36:21.904Z,25.30
2022-08-26T01:38:49.823Z,25.00
2022-08-26T01:41:19.731Z,24.90
2022-08-26T01:43:55.579Z,25.20
2022-08-26T01:46:23.754Z,25.20
2022-08-26T01:48:54.362Z,25.30
2022-08-26T01:51:22.820Z,25.30
2022-08-26T01:53:50.728Z,25.20
2022-08-26T01:56:19.998Z,25.10
2022-08-26T01:58:49.576Z,25.00
2022-08-26T02:01:19.617Z,24.80
2022-08-26T02:03:50.973Z,25.20
2022-08-26T02:06:19.705Z,25.10
2022-08-26T02:08:49.222Z,24.90
2022-08-26T02:11:18.389Z,25.00
2022-08-26T02:13:48.264Z,24.80
2022-08-26T02:16:17.042Z,24.70
2022-08-26T02:18:46.910Z,24.70
2022-08-26T02:21:14.955Z,24.80
2022-08-26T02:23:43.029Z,24.80
2022-08-26T02:26:16.341Z,24.80
2022-08-26T02:28:47.866Z,24.70
2022-08-26T02:31:15.855Z,24.60
2022-08-26T02:33:43.747Z,24.80
2022-08-26T02:36:12.109Z,24.70
2022-08-26T02:38:41.402Z,24.50
2022-08-26T02:41:11.338Z,24.50
2022-08-26T02:43:39.205Z,24.10
2022-08-26T02:46:08.520Z,24.30
2022-08-26T02:48:36.604Z,24.30
2022-08-26T02:51:04.625Z,24.50
2022-08-26T02:53:35.592Z,24.50
2022-08-26T02:56:04.043Z,24.40
2022-08-26T02:58:32.552Z,24.30
2022-08-26T03:01:01.437Z,24.30
2022-08-26T03:03:32.037Z,24.70
2022-08-26T03:06:01.096Z,24.90
2022-08-26T03:08:28.969Z,24.90
2022-08-26T03:10:56.892Z,24.90
2022-08-26T03:13:24.834Z,24.30
2022-08-26T03:15:52.766Z,24.30
2022-08-26T03:18:20.670Z,23.90
2022-08-26T03:20:50.466Z,23.70
2022-08-26T03:23:18.612Z,23.90
2022-08-26T03:25:49.913Z,23.90
2022-08-26T03:28:18.108Z,23.80
2022-08-26T03:30:46.262Z,24.10
2022-08-26T03:33:14.714Z,24.10
2022-08-26T03:35:43.552Z,24.20
2022-08-26T03:38:12.975Z,24.30
2022-08-26T03:40:40.936Z,24.30
2022-08-26T03:43:09.867Z,24.10
2022-08-26T03:45:38.176Z,24.30
2022-08-26T03:48:06.218Z,24.00
2022-08-26T03:50:35.722Z,24.20
2022-08-26T03:53:04.127Z,24.50
2022-08-26T03:55:33.692Z,25.10
2022-08-26T03:58:02.139Z,24.70
2022-08-26T04:00:30.610Z,24.60
2022-08-26T04:02:58.626Z,24.20
2022-08-26T04:05:27.815Z,24.20
2022-08-26T04:07:56.411Z,24.30
2022-08-26T04:10:29.045Z,24.40
2022-08-26T04:12:59.306Z,24.20
2022-08-26T04:15:28.034Z,24.10
2022-08-26T04:17:57.226Z,24.20
2022-08-26T04:20:25.684Z,24.40
2022-08-26T04:22:53.576Z,24.20
2022-08-26T04:25:22.573Z,23.50
2022-08-26T04:27:52.257Z,23.40
2022-08-26T04:30:22.014Z,23.40
2022-08-26T04:32:49.903Z,23.40
2022-08-26T04:35:17.877Z,23.60
2022-08-26T04:37:45.997Z,23.40
2022-08-26T04:40:14.020Z,23.50
2022-08-26T04:42:41.952Z,23.70
2022-08-26T04:45:11.807Z,24.00
2022-08-26T04:47:41.178Z,24.20
2022-08-26T04:50:11.025Z,24.30
2022-08-26T04:52:39.007Z,24.30
2022-08-26T04:55:08.600Z,23.50
2022-08-26T04:57:37.078Z,23.10
2022-08-26T05:00:05.916Z,23.50
2022-08-26T05:02:34.327Z,23.70
2022-08-26T05:05:04.431Z,24.00
2022-08-26T05:07:32.753Z,23.80
2022-08-26T05:10:00.637Z,23.50
2022-08-26T05:12:29.224Z,23.80
2022-08-26T05:14:57.398Z,23.70
2022-08-26T05:17:25.399Z,23.60
2022-08-26T05:19:53.300Z,23.30
2022-08-26T05:22:22.584Z,23.40
2022-08-26T05:24:50.762Z,23.30
2022-08-26T05:27:18.667Z,23.30
2022-08-26T05:29:48.262Z,23.50
2022-08-26T05:32:22.522Z,23.20
2022-08-26T05:34:53.935Z,23.60
2022-08-26T05:37:23.269Z,24.00
2022-08-26T05:39:51.534Z,23.80
2022-08-26T05:42:19.983Z,24.20
2022-08-26T05:44:53.829Z,24.40
2022-08-26T05:47:23.403Z,24.30
2022-08-26T05:49:51.595Z,23.80
2022-08-26T05:52:20.172Z,24.20
2022-08-26T05:54:49.458Z,24.20
2022-08-26T05:57:17.392Z,24.30
2022-08-26T05:59:46.466Z,24.10
2022-08-26T06:02:14.630Z,24.30
2022-08-26T06:04:43.449Z,24.80
2022-08-26T06:07:11.799Z,24.70
2022-08-26T06:13:11.728Z,24.80
2022-08-26T06:15:42.013Z,25.20
2022-08-26T06:18:10.255Z,25.20
2022-08-26T06:20:43.600Z,25.20
2022-08-26T06:23:42.317Z,25.20
2022-08-26T06:26:11.073Z,25.50
2022-08-26T06:28:40.405Z,25.50
2022-08-26T06:31:11.643Z,26.00
2022-08-26T06:33:39.593Z,26.20
2022-08-26T06:36:07.895Z,26.30
2022-08-26T06:38:35.840Z,26.40
2022-08-26T06:41:04.549Z,26.60
2022-08-26T06:43:32.528Z,26.70
2022-08-26T06:46:04.270Z,27.00
2022-08-26T06:48:32.868Z,27.00
2022-08-26T06:51:26.388Z,27.00
2022-08-26T06:53:54.763Z,27.30
2022-08-26T06:56:23.060Z,27.70
2022-08-26T06:58:52.083Z,27.90
2022-08-26T07:01:22.061Z,27.90
2022-08-26T07:03:50.573Z,27.70
2022-08-26T07:06:19.634Z,28.30
2022-08-26T07:08:47.566Z,28.80
2022-08-26T07:11:15.483Z,28.70
2022-08-26T07:13:43.420Z,28.60
2022-08-26T07:16:12.796Z,28.80
2022-08-26T07:18:43.096Z,28.40
2022-08-26T07:21:13.485Z,28.80
2022-08-26T07:23:42.303Z,29.10
2022-08-26T07:26:10.744Z,28.50
2022-08-26T07:28:38.717Z,29.00
2022-08-26T07:31:07.446Z,29.20
2022-08-26T07:33:37.570Z,29.30
2022-08-26T07:36:08.918Z,29.60
2022-08-26T07:38:36.946Z,29.80
2022-08-26T07:41:05.198Z,29.90
2022-08-26T07:43:33.552Z,29.10
2022-08-26T07:46:02.571Z,29.80
2022-08-26T07:48:31.257Z,30.00
2022-08-26T07:51:01.889Z,30.10
2022-08-26T07:53:31.122Z,29.80
2022-08-26T07:55:59.613Z,29.80
2022-08-26T07:58:27.521Z,30.40
2022-08-26T08:00:55.419Z,30.90
2022-08-26T08:03:23.313Z,31.30
2022-08-26T08:05:51.218Z,30.80
2022-08-26T08:08:27.764Z,30.20
2022-08-26T08:10:58.409Z,30.50
2022-08-26T08:13:27.588Z,30.60
2022-08-26T08:15:55.493Z,31.00
2022-08-26T08:18:23.678Z,30.90
2022-08-26T08:21:04.616Z,31.30
2022-08-26T08:23:39.683Z,31.40
2022-08-26T08:26:09.658Z,31.80
2022-08-26T08:28:37.653Z,31.50
2022-08-26T08:31:05.579Z,31.40
2022-08-26T08:33:33.876Z,31.30
2022-08-26T08:36:02.143Z,31.00
2022-08-26T08:38:31.189Z,31.40
2022-08-26T08:40:59.079Z,31.80
2022-08-26T08:43:32.320Z,32.10
2022-08-26T08:46:06.749Z,31.60
2022-08-26T08:48:35.103Z,32.00
2022-08-26T08:51:05.351Z,32.60
2022-08-26T08:53:33.993Z,33.10
2022-08-26T08:56:05.656Z,33.50
2022-08-26T08:58:40.665Z,33.50
2022-08-26T09:01:09.861Z,33.20
2022-08-26T09:03:41.030Z,32.80
2022-08-26T09:06:17.019Z,32.10
2022-08-26T09:08:45.646Z,31.80
2022-08-26T09:11:13.894Z,32.10
2022-08-26T09:13:44.967Z,32.00
2022-08-26T09:16:14.533Z,32.10
2022-08-26T09:18:47.191Z,31.40
2022-08-26T09:21:15.767Z,31.10
2022-08-26T09:23:49.302Z,31.80
2022-08-26T09:26:19.153Z,31.80
2022-08-26T09:28:50.157Z,32.00
2022-08-26T09:31:20.963Z,32.00
2022-08-26T09:33:48.945Z,31.80
2022-08-26T09:36:18.711Z,32.30
2022-08-26T09:38:46.556Z,32.70
2022-08-26T09:41:31.757Z,32.00
2022-08-26T09:44:17.415Z,31.60
2022-08-26T09:46:46.404Z,32.70
2022-08-26T09:49:22.236Z,32.60
2022-08-26T09:51:50.243Z,32.10
2022-08-26T09:54:25.199Z,32.80
2022-08-26T09:57:11.143Z,32.40
2022-08-26T09:59:40.401Z,32.60
2022-08-26T10:02:18.511Z,33.20
2022-08-26T10:04:51.057Z,33.60
2022-08-26T10:07:34.291Z,33.40
2022-08-26T10:10:04.000Z,33.50
2022-08-26T10:12:32.660Z,33.60
2022-08-26T10:15:02.869Z,33.70
2022-08-26T10:17:32.307Z,32.90
2022-08-26T10:20:03.725Z,33.30
2022-08-26T10:22:34.220Z,34.00
2022-08-26T10:25:03.339Z,33.70
2022-08-26T10:27:34.930Z,32.20
2022-08-26T10:30:05.584Z,32.30
2022-08-26T10:32:36.294Z,32.80
2022-08-26T10:35:10.584Z,33.10
2022-08-26T10:37:38.841Z,33.60
2022-08-26T10:40:08.439Z,34.30
2022-08-26T10:42:38.392Z,33.60
2022-08-26T10:45:11.936Z,31.80
2022-08-26T10:47:44.597Z,33.20
2022-08-26T10:50:12.819Z,33.30
2022-08-26T10:52:45.760Z,33.00
2022-08-26T10:55:15.991Z,34.40
2022-08-26T10:57:45.090Z,34.60
2022-08-26T11:00:28.915Z,33.60
2022-08-26T11:02:58.701Z,34.00
2022-08-26T11:05:26.882Z,34.60
2022-08-26T11:07:57.193Z,33.10
2022-08-26T11:10:43.842Z,34.10
2022-08-26T11:13:12.203Z,35.00
2022-08-26T11:16:10.142Z,34.60
2022-08-26T11:18:40.614Z,35.10
2022-08-26T11:21:32.853Z,35.80
2022-08-26T11:24:00.743Z,35.60
2022-08-26T11:26:35.801Z,36.10
2022-08-26T11:29:37.760Z,35.90
2022-08-26T11:32:05.742Z,35.80
2022-08-26T11:34:56.395Z,36.20
2022-08-26T11:37:25.857Z,36.10
2022-08-26T11:39:56.989Z,36.00
2022-08-26T11:42:31.180Z,35.20
2022-08-26T11:44:59.876Z,36.10
2022-08-26T11:47:31.526Z,36.50
2022-08-26T11:50:13.909Z,36.60
2022-08-26T11:52:41.811Z,35.30
2022-08-26T11:55:11.073Z,34.00
2022-08-26T11:57:42.470Z,35.50
2022-08-26T12:00:14.252Z,33.70
2022-08-26T12:02:44.834Z,34.40
2022-08-26T12:05:16.148Z,33.60
2022-08-26T12:07:44.308Z,35.70
2022-08-26T12:10:12.628Z,35.10
2022-08-26T12:12:42.560Z,35.50
2022-08-26T12:15:12.839Z,35.10
2022-08-26T12:17:40.981Z,34.90
2022-08-26T12:20:18.983Z,35.30
2022-08-26T12:22:48.105Z,36.00
2022-08-26T12:25:16.304Z,36.40
2022-08-26T12:27:44.731Z,35.70
2022-08-26T12:30:19.390Z,35.60
2022-08-26T12:32:56.626Z,36.30
2022-08-26T12:35:28.904Z,37.10
2022-08-26T12:37:57.621Z,37.70
2022-08-26T12:40:26.249Z,34.80
2022-08-26T12:42:54.297Z,34.90
2022-08-26T12:45:27.140Z,36.60
2022-08-26T12:47:55.480Z,36.20
2022-08-26T12:50:23.742Z,36.30
2022-08-26T12:52:58.659Z,37.30
2022-08-26T12:55:27.745Z,35.80
2022-08-26T12:58:10.436Z,35.60
2022-08-26T13:00:38.977Z,36.00
2022-08-26T13:03:17.748Z,36.30
2022-08-26T13:05:45.616Z,34.20
2022-08-26T13:08:15.782Z,34.70
2022-08-26T13:10:44.570Z,35.50
2022-08-26T13:13:12.476Z,36.60
2022-08-26T13:15:40.359Z,37.10
2022-08-26T13:18:08.259Z,36.70
2022-08-26T13:20:36.140Z,36.10
2022-08-26T13:23:04.563Z,34.20
2022-08-26T13:25:34.014Z,35.80
2022-08-26T13:28:01.899Z,36.60
2022-08-26T13:30:29.786Z,36.60
2022-08-26T13:32:58.761Z,36.80
2022-08-26T13:35:26.643Z,36.10
2022-08-26T13:37:54.547Z,35.80
2022-08-26T13:40:22.471Z,35.70
2022-08-26T13:42:51.844Z,35.80
2022-08-26T13:45:19.737Z,35.90
2022-08-26T13:47:47.878Z,36.40
2022-08-26T13:50:15.829Z,36.50
2022-08-26T13:52:43.714Z,36.50
2022-08-26T13:55:11.620Z,35.80
2022-08-26T13:57:39.573Z,35.40
2022-08-26T14:00:11.081Z,34.30
2022-08-26T14:02:39.188Z,33.70
2022-08-26T14:05:07.731Z,35.00
2022-08-26T14:07:35.829Z,35.10
2022-08-26T14:10:03.701Z,35.40
2022-08-26T14:12:31.571Z,35.30
2022-08-26T14:15:00.377Z,35.80
2022-08-26T14:17:30.788Z,35.90
2022-08-26T14:19:58.692Z,35.30
2022-08-26T14:22:26.621Z,35.10
2022-08-26T14:24:54.481Z,33.90
2022-08-26T14:27:22.380Z,34.80
2022-08-26T14:29:50.264Z,35.20
2022-08-26T14:32:21.379Z,35.20
2022-08-26T14:34:51.639Z,34.70
2022-08-26T14:37:19.548Z,34.50
2022-08-26T14:39:47.479Z,33.50
2022-08-26T14:42:16.799Z,32.30
2022-08-26T14:44:45.106Z,31.30
2022-08-26T14:47:13.187Z,31.30
2022-08-26T14:49:41.031Z,31.40
2022-08-26T14:52:10.307Z,31.20
2022-08-26T14:54:37.917Z,30.50
2022-08-26T14:57:06.604Z,30.80
2022-08-26T14:59:34.791Z,30.10
2022-08-26T15:02:02.761Z,31.30
2022-08-26T15:04:30.704Z,31.50
2022-08-26T15:07:02.746Z,31.20
2022-08-26T15:09:32.753Z,31.00
2022-08-26T15:12:00.849Z,30.70
2022-08-26T15:14:32.347Z,30.70
2022-08-26T15:17:00.913Z,31.00
2022-08-26T15:19:28.857Z,29.80
2022-08-26T15:21:56.800Z,29.70
2022-08-26T15:24:25.139Z,29.80
2022-08-26T15:26:57.020Z,29.60
2022-08-26T15:29:24.911Z,29.30
2022-08-26T15:31:55.263Z,29.40
2022-08-26T15:34:25.508Z,29.50
2022-08-26T15:36:53.965Z,29.60
2022-08-26T15:39:21.846Z,29.80
2022-08-26T15:41:49.841Z,30.60
2022-08-26T15:44:19.694Z,30.50
2022-08-26T15:46:48.574Z,30.50
2022-08-26T15:49:18.146Z,30.60
2022-08-26T15:51:48.299Z,30.70
2022-08-26T15:54:19.649Z,30.90
2022-08-26T15:56:50.783Z,31.20
2022-08-26T15:59:23.122Z,30.80
2022-08-26T16:01:51.595Z,30.20
2022-08-26T16:04:20.175Z,28.70
2022-08-26T16:06:50.605Z,29.00
2022-08-26T16:09:18.535Z,29.30
2022-08-26T16:11:46.477Z,28.90
2022-08-26T16:14:16.776Z,28.20
2022-08-26T16:16:47.132Z,28.10
2022-08-26T16:19:17.720Z,27.30
2022-08-26T16:21:45.779Z,25.90
2022-08-26T16:24:13.751Z,25.80
2022-08-26T16:26:42.065Z,26.70
2022-08-26T16:29:10.384Z,26.30
2022-08-26T16:31:42.115Z,26.50
2022-08-26T16:34:11.584Z,26.70
2022-08-26T16:36:39.478Z,26.50
2022-08-26T16:39:07.626Z,26.50
2022-08-26T16:41:35.577Z,26.00
2022-08-26T16:44:05.992Z,26.30
2022-08-26T16:46:35.255Z,26.50
2022-08-26T16:49:04.576Z,26.70
2022-08-26T16:51:38.093Z,27.20
2022-08-26T16:54:07.143Z,27.00
2022-08-26T16:56:35.179Z,27.30
2022-08-26T16:59:03.229Z,26.80
2022-08-26T17:01:31.251Z,26.80
2022-08-26T17:03:59.171Z,27.20
2022-08-26T17:06:28.416Z,27.40
2022-08-26T17:08:57.668Z,27.60
2022-08-26T17:11:25.571Z,27.40
2022-08-26T17:13:53.428Z,27.60
2022-08-26T17:16:26.437Z,26.30
2022-08-26T17:18:55.400Z,26.70
2022-08-26T17:21:23.288Z,26.20
2022-08-26T17:23:51.845Z,26.80
2022-08-26T17:26:21.123Z,26.30
2022-08-26T17:28:48.977Z,25.90
2022-08-26T17:31:16.901Z,26.30
2022-08-26T17:33:47.758Z,26.00
2022-08-26T17:36:18.209Z,25.70
2022-08-26T17:38:46.065Z,25.80
2022-08-26T17:41:16.532Z,25.90
2022-08-26T17:43:45.815Z,26.10
2022-08-26T17:46:13.876Z,26.00
2022-08-26T17:48:41.820Z,25.90
2022-08-26T17:51:09.932Z,25.60
2022-08-26T17:53:38.638Z,25.60
2022-08-26T17:56:07.238Z,25.80
2022-08-26T17:58:36.101Z,25.90
2022-08-26T18:01:06.200Z,26.10
2022-08-26T18:03:34.270Z,26.20
2022-08-26T18:06:02.501Z,26.40
2022-08-26T18:08:30.396Z,26.20
2022-08-26T18:10:59.063Z,26.10
2022-08-26T18:13:27.017Z,26.30
2022-08-26T18:15:54.922Z,26.60
2022-08-26T18:18:24.511Z,26.50
2022-08-26T18:20:54.058Z,26.50
2022-08-26T18:23:31.395Z,26.70
2022-08-26T18:25:59.467Z,26.40
2022-08-26T18:28:27.820Z,26.60
2022-08-26T18:30:56.978Z,26.10
2022-08-26T18:33:27.535Z,26.10
2022-08-26T18:35:55.896Z,26.30
2022-08-26T18:38:23.781Z,26.30
2022-08-26T18:40:56.287Z,26.30
2022-08-26T18:43:24.191Z,26.20
2022-08-26T18:46:01.634Z,26.50
2022-08-26T18:48:30.937Z,26.30
2022-08-26T18:51:00.057Z,26.70
2022-08-26T18:53:28.461Z,26.50
2022-08-26T18:55:56.353Z,25.80
2022-08-26T18:58:24.271Z,25.80
2022-08-26T19:00:52.119Z,25.80
2022-08-26T19:03:20.035Z,25.70
2022-08-26T19:05:49.381Z,25.90
2022-08-26T19:08:17.457Z,25.30
2022-08-26T19:10:45.333Z,25.10
2022-08-26T19:13:13.392Z,24.20
2022-08-26T19:15:44.819Z,23.80
2022-08-26T19:18:13.987Z,24.00
2022-08-26T19:20:46.040Z,24.40
2022-08-26T19:23:31.070Z,24.80
2022-08-26T19:25:59.642Z,25.40
2022-08-26T19:28:27.521Z,25.80
2022-08-26T19:30:55.398Z,25.90
2022-08-26T19:33:23.292Z,25.80
2022-08-26T19:35:51.185Z,25.30
2022-08-26T19:38:21.005Z,25.50
2022-08-26T19:40:48.992Z,25.80
2022-08-26T19:43:17.018Z,26.10
2022-08-26T19:45:44.928Z,26.20
2022-08-26T19:48:13.976Z,25.30
2022-08-26T19:50:42.264Z,25.50
2022-08-26T19:53:10.331Z,25.80
2022-08-26T19:55:39.566Z,26.10
2022-08-26T19:58:08.074Z,25.90
2022-08-26T20:00:39.638Z,25.50
2022-08-26T20:03:08.649Z,25.80
2022-08-26T20:05:41.403Z,25.70
2022-08-26T20:08:09.586Z,25.90
2022-08-26T20:10:51.263Z,25.30
2022-08-26T20:13:19.188Z,25.60
2022-08-26T20:15:47.073Z,25.70
2022-08-26T20:18:28.816Z,25.70
2022-08-26T20:21:14.367Z,25.70
2022-08-26T20:23:43.618Z,26.10
2022-08-26T20:26:13.349Z,26.00
2022-08-26T20:28:41.259Z,26.10
2022-08-26T20:31:10.729Z,26.10
2022-08-26T20:33:46.624Z,25.80
2022-08-26T20:36:14.910Z,25.70
2022-08-26T20:38:42.761Z,25.90
2022-08-26T20:41:11.086Z,26.00
2022-08-26T20:43:40.476Z,26.10
2022-08-26T20:46:17.240Z,25.90
2022-08-26T20:48:45.805Z,26.00
2022-08-26T20:51:13.881Z,26.00
2022-08-26T20:53:45.484Z,26.00
2022-08-26T20:56:14.534Z,25.80
2022-08-26T20:58:43.940Z,25.90
2022-08-26T21:01:18.369Z,25.80
2022-08-26T21:03:46.388Z,26.10
2022-08-26T21:06:14.332Z,26.20
2022-08-26T21:08:43.399Z,26.00
2022-08-26T21:11:12.819Z,26.00
2022-08-26T21:14:03.431Z,26.10
2022-08-26T21:16:30.024Z,25.80
2022-08-26T21:18:57.915Z,25.70
2022-08-26T21:21:28.523Z,25.50
2022-08-26T21:23:56.476Z,25.40
2022-08-26T21:26:24.575Z,25.20
2022-08-26T21:28:52.462Z,25.50
2022-08-26T21:31:20.783Z,25.70
2022-08-26T21:33:50.981Z,25.40
2022-08-26T21:36:18.890Z,24.90
2022-08-26T21:38:46.777Z,25.30
2022-08-26T21:41:15.451Z,25.10
2022-08-26T21:43:44.042Z,25.30
2022-08-26T21:46:14.517Z,25.70
2022-08-26T21:48:42.698Z,25.30
2022-08-26T21:51:12.220Z,25.70
2022-08-26T21:53:40.184Z,25.70
2022-08-26T21:56:08.512Z,25.60
2022-08-26T21:58:36.409Z,25.70
2022-08-26T22:01:05.392Z,25.70
2022-08-26T22:03:35.128Z,25.30
2022-08-26T22:06:16.732Z,25.50
2022-08-26T22:08:44.696Z,25.60
2022-08-26T22:11:13.232Z,25.80
2022-08-26T22:13:41.504Z,25.80
2022-08-26T22:16:09.579Z,25.80
2022-08-26T22:18:37.624Z,25.60
2022-08-26T22:21:06.100Z,25.50
2022-08-26T22:23:35.475Z,25.50
2022-08-26T22:26:03.413Z,25.50
2022-08-26T22:28:31.850Z,25.50
2022-08-26T22:30:59.742Z,25.30
2022-08-26T22:33:27.665Z,25.60
2022-08-26T22:35:55.691Z,25.70
2022-08-26T22:38:24.107Z,25.70
2022-08-26T22:40:55.294Z,25.70
2022-08-26T22:43:23.478Z,25.80
2022-08-26T22:45:51.409Z,25.80
2022-08-26T22:48:19.872Z,26.00
2022-08-26T22:50:48.168Z,26.20
2022-08-26T22:53:16.269Z,25.90
2022-08-26T22:55:44.366Z,26.00
2022-08-26T22:58:14.806Z,26.10
2022-08-26T23:00:42.751Z,25.90
2022-08-26T23:03:11.923Z,25.60
2022-08-26T23:05:40.010Z,25.60
2022-08-26T23:08:08.608Z,25.80
2022-08-26T23:10:37.021Z,25.80
2022-08-26T23:13:04.937Z,25.80
2022-08-26T23:15:34.177Z,25.60
2022-08-26T23:18:02.513Z,25.40
2022-08-26T23:20:30.486Z,25.20
2022-08-26T23:22:58.666Z,24.80
2022-08-26T23:25:26.625Z,24.50
2022-08-26T23:27:54.567Z,24.60
2022-08-26T23:30:23.009Z,24.10
2022-08-26T23:32:52.275Z,24.20
2022-08-26T23:35:21.737Z,24.20
2022-08-26T23:37:51.184Z,23.90
2022-08-26T23:40:19.980Z,23.70
2022-08-26T23:42:47.928Z,23.80
2022-08-26T23:45:18.396Z,23.70
2022-08-26T23:47:46.277Z,23.90
2022-08-26T23:50:15.664Z,23.90
2022-08-26T23:53:01.252Z,23.70
2022-08-26T23:55:29.160Z,23.70
2022-08-26T23:57:57.155Z,23.60
